createdAt,value
2019-05-05T00:00:04.855Z,0.00
2019-05-05T00:01:05.236Z,0.00
2019-05-05T00:02:04.487Z,0.00
2019-05-05T00:03:04.296Z,0.00
2019-05-05T00:04:04.496Z,0.00
2019-05-05T00:05:04.935Z,0.00
2019-05-05T00:06:05.292Z,0.00
2019-05-05T00:07:04.388Z,0.00
2019-05-05T00:08:04.901Z,0.00
2019-05-05T00:09:05.415Z,0.00
2019-05-05T00:10:04.596Z,0.00
2019-05-05T00:11:05.104Z,0.00
2019-05-05T00:12:05.308Z,0.00
2019-05-05T00:13:04.536Z,0.00
2019-05-05T00:14:04.717Z,0.00
2019-05-05T00:15:05.311Z,0.00
2019-05-05T00:16:04.668Z,0.00
2019-05-05T00:17:05.234Z,0.00
2019-05-05T00:18:05.311Z,0.00
2019-05-05T00:19:04.761Z,0.00
2019-05-05T00:20:05.145Z,0.00
2019-05-05T00:21:04.623Z,0.00
2019-05-05T00:22:04.573Z,0.00
2019-05-05T00:23:05.188Z,0.00
2019-05-05T00:24:04.671Z,0.00
2019-05-05T00:25:05.071Z,0.00
2019-05-05T00:26:04.434Z,0.00
2019-05-05T00:27:04.291Z,0.00
2019-05-05T00:28:05.038Z,0.00
2019-05-05T00:29:04.359Z,0.00
2019-05-05T00:30:05.277Z,0.00
2019-05-05T00:31:04.673Z,0.00
2019-05-05T00:32:04.927Z,0.00
2019-05-05T00:33:05.391Z,0.00
2019-05-05T00:34:05.057Z,0.00
2019-05-05T00:35:04.359Z,0.00
2019-05-05T00:36:05.529Z,0.00
2019-05-05T00:37:04.618Z,0.00
2019-05-05T00:38:04.924Z,0.00
2019-05-05T00:39:04.323Z,0.00
2019-05-05T00:40:04.859Z,0.00
2019-05-05T00:41:02.922Z,0.00
2019-05-05T00:42:04.793Z,0.00
2019-05-05T00:43:05.183Z,0.00
2019-05-05T00:44:04.738Z,0.00
2019-05-05T00:45:02.847Z,0.00
2019-05-05T00:46:04.590Z,0.00
2019-05-05T00:47:02.795Z,0.00
2019-05-05T00:48:04.692Z,0.00
2019-05-05T00:49:02.763Z,0.00
2019-05-05T00:50:02.733Z,0.00
2019-05-05T00:51:04.517Z,0.00
2019-05-05T00:52:04.944Z,0.00
2019-05-05T00:53:02.681Z,0.00
2019-05-05T00:54:04.365Z,0.00
2019-05-05T00:55:04.495Z,0.00
2019-05-05T00:56:02.629Z,0.00
2019-05-05T00:57:04.462Z,0.00
2019-05-05T00:58:02.585Z,0.00
2019-05-05T00:59:04.496Z,0.00
2019-05-05T01:00:02.545Z,0.00
2019-05-05T01:01:02.555Z,0.00
2019-05-05T01:02:04.499Z,0.00
2019-05-05T01:03:04.610Z,0.00
2019-05-05T01:04:02.468Z,0.00
2019-05-05T01:05:04.394Z,0.00
2019-05-05T01:06:04.436Z,0.00
2019-05-05T01:07:02.411Z,0.00
2019-05-05T01:08:02.419Z,0.00
2019-05-05T01:09:04.201Z,0.00
2019-05-05T01:10:02.350Z,0.00
2019-05-05T01:11:04.148Z,0.00
2019-05-05T01:12:04.277Z,0.00
2019-05-05T01:13:02.311Z,0.00
2019-05-05T01:14:02.292Z,0.00
2019-05-05T01:15:04.489Z,0.00
2019-05-05T01:16:02.223Z,0.00
2019-05-05T01:17:02.208Z,0.00
2019-05-05T01:18:02.357Z,0.00
2019-05-05T01:19:04.387Z,0.00
2019-05-05T01:20:06.157Z,0.00
2019-05-05T01:21:02.125Z,0.00
2019-05-05T01:22:02.109Z,0.00
2019-05-05T01:23:04.287Z,0.00
2019-05-05T01:24:02.100Z,0.00
2019-05-05T01:25:02.054Z,0.00
2019-05-05T01:26:02.030Z,0.00
2019-05-05T01:27:04.113Z,0.00
2019-05-05T01:28:01.992Z,0.00
2019-05-05T01:29:02.007Z,0.00
2019-05-05T01:30:01.947Z,0.00
2019-05-05T01:31:01.936Z,0.00
2019-05-05T01:32:01.911Z,0.00
2019-05-05T01:33:01.892Z,0.00
2019-05-05T01:34:01.894Z,0.00
2019-05-05T01:35:01.875Z,0.00
2019-05-05T01:36:01.864Z,0.00
2019-05-05T01:37:01.816Z,0.00
2019-05-05T01:38:01.796Z,0.00
2019-05-05T01:39:01.896Z,0.00
2019-05-05T01:40:01.748Z,0.00
2019-05-05T01:41:01.730Z,0.00
2019-05-05T01:42:01.711Z,0.00
2019-05-05T01:43:01.687Z,0.00
2019-05-05T01:44:01.668Z,0.00
2019-05-05T01:45:01.680Z,0.00
2019-05-05T01:46:01.632Z,0.00
2019-05-05T01:47:01.611Z,0.00
2019-05-05T01:48:01.588Z,0.00
2019-05-05T01:49:01.570Z,0.00
2019-05-05T01:50:15.206Z,0.00
2019-05-05T01:51:01.526Z,0.00
2019-05-05T01:52:01.534Z,0.00
2019-05-05T01:53:01.494Z,0.00
2019-05-05T01:54:01.471Z,0.00
2019-05-05T01:55:01.454Z,0.00
2019-05-05T01:56:01.463Z,0.00
2019-05-05T01:57:01.416Z,0.00
2019-05-05T01:58:01.399Z,0.00
2019-05-05T01:59:01.379Z,0.00
2019-05-05T02:00:01.373Z,0.00
2019-05-05T02:01:01.367Z,0.00
2019-05-05T02:02:01.343Z,0.00
2019-05-05T02:03:01.297Z,0.00
2019-05-05T02:04:01.281Z,0.00
2019-05-05T02:05:01.262Z,0.00
2019-05-05T02:06:01.260Z,0.00
2019-05-05T02:07:01.213Z,0.00
2019-05-05T02:08:01.193Z,0.00
2019-05-05T02:09:01.175Z,0.00
2019-05-05T02:10:01.152Z,0.00
2019-05-05T02:11:01.164Z,0.00
2019-05-05T02:12:01.138Z,0.00
2019-05-05T02:13:01.102Z,0.00
2019-05-05T02:14:01.071Z,0.00
2019-05-05T02:15:01.052Z,0.00
2019-05-05T02:16:01.061Z,0.00
2019-05-05T02:17:01.014Z,0.00
2019-05-05T02:18:01.028Z,0.00
2019-05-05T02:19:00.979Z,0.00
2019-05-05T02:20:00.956Z,0.00
2019-05-05T02:21:00.957Z,0.00
2019-05-05T02:22:00.942Z,0.00
2019-05-05T02:23:00.897Z,0.00
2019-05-05T02:24:00.879Z,0.00
2019-05-05T02:25:00.856Z,0.00
2019-05-05T02:26:00.831Z,0.00
2019-05-05T02:27:00.845Z,0.00
2019-05-05T02:28:00.804Z,0.00
2019-05-05T02:29:00.782Z,0.00
2019-05-05T02:30:00.781Z,0.00
2019-05-05T02:31:00.745Z,0.00
2019-05-05T02:32:00.720Z,0.00
2019-05-05T02:33:00.703Z,0.00
2019-05-05T02:34:00.740Z,0.00
2019-05-05T02:35:00.679Z,0.00
2019-05-05T02:36:00.655Z,0.00
2019-05-05T02:37:00.632Z,0.00
2019-05-05T02:38:00.611Z,0.00
2019-05-05T02:39:00.591Z,0.00
2019-05-05T02:40:06.374Z,0.00
2019-05-05T02:41:00.550Z,0.00
2019-05-05T02:42:00.521Z,0.00
2019-05-05T02:43:00.509Z,0.00
2019-05-05T02:44:00.505Z,0.00
2019-05-05T02:45:00.459Z,0.00
2019-05-05T02:46:00.454Z,0.00
2019-05-05T02:47:00.432Z,0.00
2019-05-05T02:48:00.409Z,0.00
2019-05-05T02:49:00.405Z,0.00
2019-05-05T02:50:00.361Z,0.00
2019-05-05T02:51:02.780Z,0.00
2019-05-05T02:52:00.315Z,0.00
2019-05-05T02:53:00.301Z,0.00
2019-05-05T02:54:00.306Z,0.00
2019-05-05T02:55:00.261Z,0.00
2019-05-05T02:56:00.245Z,0.00
2019-05-05T02:57:00.219Z,0.00
2019-05-05T02:58:00.207Z,0.00
2019-05-05T02:59:00.211Z,0.00
2019-05-05T03:00:00.167Z,0.00
2019-05-05T03:01:00.155Z,0.00
2019-05-05T03:02:00.132Z,0.00
2019-05-05T03:03:00.100Z,0.00
2019-05-05T03:04:00.108Z,0.00
2019-05-05T03:05:00.059Z,0.00
2019-05-05T03:06:00.038Z,0.00
2019-05-05T03:07:00.021Z,0.00
2019-05-05T03:08:00.004Z,0.00
2019-05-05T03:09:00.013Z,0.00
2019-05-05T03:09:59.972Z,0.00
2019-05-05T03:10:59.953Z,0.00
2019-05-05T03:11:59.929Z,0.00
2019-05-05T03:12:59.908Z,0.00
2019-05-05T03:13:59.913Z,0.00
2019-05-05T03:14:59.893Z,0.00
2019-05-05T03:15:59.838Z,0.00
2019-05-05T03:16:59.833Z,0.00
2019-05-05T03:17:59.808Z,0.00
2019-05-05T03:18:59.817Z,0.00
2019-05-05T03:19:59.801Z,4.00
2019-05-05T03:21:04.483Z,4.00
2019-05-05T03:21:59.726Z,0.00
2019-05-05T03:22:59.703Z,0.00
2019-05-05T03:23:59.682Z,4.00
2019-05-05T03:24:59.695Z,0.00
2019-05-05T03:25:59.669Z,4.00
2019-05-05T03:26:59.623Z,0.00
2019-05-05T03:27:59.605Z,4.00
2019-05-05T03:28:59.609Z,4.00
2019-05-05T03:29:59.564Z,4.00
2019-05-05T03:30:59.574Z,4.00
2019-05-05T03:31:59.533Z,4.00
2019-05-05T03:32:59.503Z,4.00
2019-05-05T03:33:59.489Z,8.00
2019-05-05T03:34:59.468Z,8.00
2019-05-05T03:35:59.470Z,8.00
2019-05-05T03:36:59.453Z,8.00
2019-05-05T03:37:59.402Z,8.00
2019-05-05T03:38:59.390Z,12.00
2019-05-05T03:39:59.366Z,12.00
2019-05-05T03:40:59.380Z,16.00
2019-05-05T03:41:59.322Z,16.00
2019-05-05T03:42:59.309Z,20.00
2019-05-05T03:43:59.291Z,20.00
2019-05-05T03:44:59.264Z,24.00
2019-05-05T03:45:59.274Z,28.00
2019-05-05T03:46:59.232Z,28.00
2019-05-05T03:47:59.204Z,32.00
2019-05-05T03:48:59.184Z,40.00
2019-05-05T03:49:59.173Z,40.00
2019-05-05T03:50:59.152Z,44.00
2019-05-05T03:51:59.271Z,48.00
2019-05-05T03:52:59.105Z,52.00
2019-05-05T03:53:59.083Z,60.00
2019-05-05T03:54:59.072Z,64.00
2019-05-05T03:55:59.043Z,68.00
2019-05-05T03:56:59.030Z,68.00
2019-05-05T03:57:59.038Z,80.00
2019-05-05T03:58:58.988Z,80.00
2019-05-05T03:59:58.964Z,88.00
2019-05-05T04:00:58.949Z,92.00
2019-05-05T04:01:58.915Z,100.00
2019-05-05T04:02:58.938Z,104.00
2019-05-05T04:03:58.877Z,112.00
2019-05-05T04:04:58.870Z,120.00
2019-05-05T04:05:58.840Z,124.00
2019-05-05T04:06:58.828Z,132.00
2019-05-05T04:07:58.829Z,140.00
2019-05-05T04:08:58.782Z,148.00
2019-05-05T04:09:58.762Z,156.00
2019-05-05T04:10:58.740Z,160.00
2019-05-05T04:11:58.716Z,172.00
2019-05-05T04:12:58.833Z,176.00
2019-05-05T04:13:58.677Z,180.00
2019-05-05T04:14:58.668Z,188.00
2019-05-05T04:15:58.655Z,200.00
2019-05-05T04:16:58.620Z,208.00
2019-05-05T04:17:58.597Z,216.00
2019-05-05T04:18:58.614Z,220.00
2019-05-05T04:19:58.594Z,236.00
2019-05-05T04:20:58.537Z,244.00
2019-05-05T04:21:58.522Z,248.00
2019-05-05T04:22:58.504Z,256.00
2019-05-05T04:23:58.512Z,264.00
2019-05-05T04:24:58.487Z,268.00
2019-05-05T04:25:58.442Z,280.00
2019-05-05T04:26:58.414Z,284.00
2019-05-05T04:27:58.406Z,296.00
2019-05-05T04:28:58.386Z,304.00
2019-05-05T04:29:58.388Z,316.00
2019-05-05T04:30:58.346Z,328.00
2019-05-05T04:31:58.318Z,336.00
2019-05-05T04:32:58.345Z,344.00
2019-05-05T04:33:58.286Z,352.00
2019-05-05T04:34:58.287Z,360.00
2019-05-05T04:35:58.239Z,368.00
2019-05-05T04:36:58.251Z,376.00
2019-05-05T04:37:58.193Z,384.00
2019-05-05T04:38:58.181Z,388.00
2019-05-05T04:39:58.152Z,400.00
2019-05-05T04:40:58.160Z,408.00
2019-05-05T04:41:58.140Z,412.00
2019-05-05T04:42:58.101Z,424.00
2019-05-05T04:43:58.074Z,428.00
2019-05-05T04:44:58.085Z,436.00
2019-05-05T04:45:58.034Z,448.00
2019-05-05T04:46:58.047Z,452.00
2019-05-05T04:47:57.989Z,464.00
2019-05-05T04:48:57.975Z,472.00
2019-05-05T04:49:57.986Z,480.00
2019-05-05T04:50:57.930Z,484.00
2019-05-05T04:51:57.950Z,496.00
2019-05-05T04:52:57.890Z,504.00
2019-05-05T04:53:57.882Z,508.00
2019-05-05T04:54:57.886Z,524.00
2019-05-05T04:55:57.838Z,528.00
2019-05-05T04:56:57.849Z,540.00
2019-05-05T04:57:57.801Z,548.00
2019-05-05T04:58:57.775Z,548.00
2019-05-05T04:59:57.757Z,556.00
2019-05-05T05:00:57.732Z,568.00
2019-05-05T05:01:57.735Z,572.00
2019-05-05T05:02:57.700Z,576.00
2019-05-05T05:03:57.676Z,592.00
2019-05-05T05:04:57.650Z,596.00
2019-05-05T05:05:57.632Z,612.00
2019-05-05T05:06:57.643Z,612.00
2019-05-05T05:07:58.092Z,624.00
2019-05-05T05:08:57.571Z,632.00
2019-05-05T05:09:57.560Z,636.00
2019-05-05T05:10:57.530Z,636.00
2019-05-05T05:11:57.541Z,644.00
2019-05-05T05:12:57.499Z,652.00
2019-05-05T05:13:57.471Z,652.00
2019-05-05T05:14:57.460Z,660.00
2019-05-05T05:15:57.427Z,664.00
2019-05-05T05:16:57.448Z,676.00
2019-05-05T05:17:57.402Z,684.00
2019-05-05T05:18:57.382Z,692.00
2019-05-05T05:19:57.352Z,696.00
2019-05-05T05:20:57.329Z,704.00
2019-05-05T05:22:01.261Z,712.00
2019-05-05T05:22:57.305Z,720.00
2019-05-05T05:23:57.271Z,724.00
2019-05-05T05:24:57.256Z,728.00
2019-05-05T05:25:57.235Z,736.00
2019-05-05T05:26:57.241Z,744.00
2019-05-05T05:27:57.205Z,752.00
2019-05-05T05:28:57.204Z,756.00
2019-05-05T05:29:57.160Z,772.00
2019-05-05T05:30:57.142Z,788.00
2019-05-05T05:31:57.123Z,800.00
2019-05-05T05:32:57.097Z,752.00
2019-05-05T05:33:57.083Z,736.00
2019-05-05T05:34:57.065Z,700.00
2019-05-05T05:35:57.046Z,704.00
2019-05-05T05:36:57.017Z,720.00
2019-05-05T05:37:57.674Z,728.00
2019-05-05T05:38:56.986Z,724.00
2019-05-05T05:39:56.969Z,748.00
2019-05-05T05:40:56.936Z,784.00
2019-05-05T05:41:56.914Z,952.00
2019-05-05T05:42:56.899Z,1044.00
2019-05-05T05:43:56.901Z,1056.00
2019-05-05T05:44:56.866Z,1172.00
2019-05-05T05:45:56.840Z,1248.00
2019-05-05T05:46:56.831Z,1184.00
2019-05-05T05:47:56.809Z,1440.00
2019-05-05T05:48:56.932Z,1628.00
2019-05-05T05:49:56.763Z,1708.00
2019-05-05T05:50:56.738Z,1696.00
2019-05-05T05:51:56.723Z,1604.00
2019-05-05T05:52:56.715Z,1528.00
2019-05-05T05:53:56.681Z,1756.00
2019-05-05T05:54:56.690Z,1756.00
2019-05-05T05:55:56.644Z,1836.00
2019-05-05T05:56:56.623Z,1636.00
2019-05-05T05:57:56.610Z,1848.00
2019-05-05T05:58:56.592Z,1680.00
2019-05-05T05:59:56.595Z,1848.00
2019-05-05T06:00:56.542Z,1868.00
2019-05-05T06:02:09.007Z,1896.00
2019-05-05T06:02:56.506Z,1988.00
2019-05-05T06:03:56.504Z,1924.00
2019-05-05T06:04:56.488Z,1820.00
2019-05-05T06:05:56.451Z,1520.00
2019-05-05T06:06:56.425Z,1768.00
2019-05-05T06:07:56.416Z,1940.00
2019-05-05T06:08:56.406Z,2024.00
2019-05-05T06:09:56.507Z,2332.00
2019-05-05T06:10:56.360Z,2240.00
2019-05-05T06:11:56.335Z,2092.00
2019-05-05T06:12:56.318Z,2364.00
2019-05-05T06:13:56.296Z,2300.00
2019-05-05T06:14:56.282Z,2196.00
2019-05-05T06:15:56.282Z,2112.00
2019-05-05T06:16:56.239Z,2196.00
2019-05-05T06:17:56.226Z,2272.00
2019-05-05T06:18:56.204Z,2208.00
2019-05-05T06:19:56.183Z,2172.00
2019-05-05T06:20:56.192Z,2144.00
2019-05-05T06:21:56.142Z,2096.00
2019-05-05T06:22:56.133Z,2068.00
2019-05-05T06:23:56.117Z,2016.00
2019-05-05T06:24:56.091Z,2152.00
2019-05-05T06:25:56.092Z,1960.00
2019-05-05T06:26:56.079Z,2032.00
2019-05-05T06:27:56.031Z,1952.00
2019-05-05T06:28:56.012Z,1832.00
2019-05-05T06:29:56.000Z,1812.00
2019-05-05T06:30:55.979Z,1816.00
2019-05-05T06:31:55.975Z,1976.00
2019-05-05T06:32:55.950Z,1900.00
2019-05-05T06:33:55.920Z,2008.00
2019-05-05T06:34:55.897Z,2152.00
2019-05-05T06:35:55.887Z,2160.00
2019-05-05T06:36:55.886Z,2144.00
2019-05-05T06:37:55.853Z,2156.00
2019-05-05T06:38:55.822Z,2152.00
2019-05-05T06:39:55.814Z,2032.00
2019-05-05T06:40:55.786Z,1972.00
2019-05-05T06:41:55.798Z,1912.00
2019-05-05T06:42:55.750Z,1844.00
2019-05-05T06:43:55.740Z,1700.00
2019-05-05T06:44:55.711Z,1652.00
2019-05-05T06:45:55.691Z,1652.00
2019-05-05T06:46:55.699Z,1692.00
2019-05-05T06:47:55.666Z,1804.00
2019-05-05T06:48:55.778Z,2092.00
2019-05-05T06:49:55.617Z,2180.00
2019-05-05T06:50:55.629Z,2208.00
2019-05-05T06:51:55.582Z,2132.00
2019-05-05T06:52:55.572Z,2088.00
2019-05-05T06:53:55.555Z,1968.00
2019-05-05T06:54:55.555Z,1980.00
2019-05-05T06:55:55.510Z,2028.00
2019-05-05T06:56:55.494Z,1996.00
2019-05-05T06:57:55.471Z,2196.00
2019-05-05T06:58:55.478Z,2220.00
2019-05-05T06:59:55.430Z,2124.00
2019-05-05T07:00:55.413Z,2260.00
2019-05-05T07:01:55.424Z,2220.00
2019-05-05T07:02:55.378Z,2116.00
2019-05-05T07:03:55.389Z,2240.00
2019-05-05T07:04:55.341Z,2224.00
2019-05-05T07:05:55.319Z,2292.00
2019-05-05T07:06:57.194Z,2104.00
2019-05-05T07:07:55.292Z,2024.00
2019-05-05T07:08:55.297Z,2204.00
2019-05-05T07:09:55.254Z,2152.00
2019-05-05T07:10:55.235Z,2244.00
2019-05-05T07:11:55.211Z,2132.00
2019-05-05T07:12:55.194Z,1976.00
2019-05-05T07:13:55.196Z,1740.00
2019-05-05T07:14:55.182Z,1628.00
2019-05-05T07:15:55.134Z,1460.00
2019-05-05T07:16:55.117Z,1496.00
2019-05-05T07:17:55.095Z,1548.00
2019-05-05T07:18:55.132Z,1668.00
2019-05-05T07:19:55.057Z,1824.00
2019-05-05T07:20:55.047Z,2040.00
2019-05-05T07:21:55.021Z,2160.00
2019-05-05T07:23:01.427Z,2212.00
2019-05-05T07:23:54.985Z,2384.00
2019-05-05T07:24:55.000Z,2652.00
2019-05-05T07:25:55.150Z,2620.00
2019-05-05T07:26:54.929Z,2624.00
2019-05-05T07:27:54.911Z,2772.00
2019-05-05T07:28:54.895Z,2924.00
2019-05-05T07:29:55.003Z,2856.00
2019-05-05T07:30:54.925Z,2796.00
2019-05-05T07:31:54.850Z,2720.00
2019-05-05T07:32:54.815Z,2784.00
2019-05-05T07:33:54.806Z,2684.00
2019-05-05T07:34:54.796Z,2632.00
2019-05-05T07:35:59.570Z,2508.00
2019-05-05T07:36:54.960Z,2484.00
2019-05-05T07:37:54.727Z,2528.00
2019-05-05T07:38:54.831Z,2588.00
2019-05-05T07:39:54.694Z,2560.00
2019-05-05T07:40:54.677Z,2580.00
2019-05-05T07:41:54.651Z,2668.00
2019-05-05T07:42:54.640Z,2796.00
2019-05-05T07:43:54.623Z,3020.00
2019-05-05T07:44:54.823Z,3212.00
2019-05-05T07:45:54.605Z,3352.00
2019-05-05T07:46:54.561Z,3360.00
2019-05-05T07:47:54.543Z,3344.00
2019-05-05T07:48:54.586Z,3424.00
2019-05-05T07:49:54.504Z,3676.00
2019-05-05T07:51:01.985Z,3888.00
2019-05-05T07:51:54.869Z,3740.00
2019-05-05T07:52:54.686Z,3612.00
2019-05-05T07:53:54.772Z,3436.00
2019-05-05T07:54:55.147Z,3220.00
2019-05-05T07:55:54.402Z,3100.00
2019-05-05T07:56:54.375Z,3096.00
2019-05-05T07:57:54.383Z,3228.00
2019-05-05T07:58:54.473Z,3088.00
2019-05-05T07:59:54.329Z,3092.00
2019-05-05T08:00:54.304Z,3044.00
2019-05-05T08:01:54.911Z,3016.00
2019-05-05T08:02:54.526Z,2884.00
2019-05-05T08:03:54.246Z,2904.00
2019-05-05T08:04:54.557Z,2876.00
2019-05-05T08:05:54.562Z,3172.00
2019-05-05T08:06:54.334Z,3172.00
2019-05-05T08:07:54.174Z,3408.00
2019-05-05T08:08:54.642Z,3608.00
2019-05-05T08:09:54.140Z,3680.00
2019-05-05T08:10:54.279Z,4044.00
2019-05-05T08:11:54.327Z,3900.00
2019-05-05T08:12:54.337Z,3668.00
2019-05-05T08:13:54.709Z,3760.00
2019-05-05T08:14:54.072Z,3788.00
2019-05-05T08:15:59.363Z,4060.00
2019-05-05T08:16:54.050Z,4492.00
2019-05-05T08:17:54.059Z,4884.00
2019-05-05T08:18:54.400Z,5236.00
2019-05-05T08:19:54.385Z,5532.00
2019-05-05T08:20:53.947Z,5716.00
2019-05-05T08:21:54.303Z,5664.00
2019-05-05T08:22:53.943Z,5652.00
2019-05-05T08:23:54.165Z,5628.00
2019-05-05T08:24:54.474Z,5700.00
2019-05-05T08:25:54.147Z,5848.00
2019-05-05T08:26:54.591Z,6020.00
2019-05-05T08:27:53.922Z,6256.00
2019-05-05T08:28:54.067Z,6784.00
2019-05-05T08:29:54.356Z,6560.00
2019-05-05T08:30:54.575Z,6792.00
2019-05-05T08:31:53.772Z,7172.00
2019-05-05T08:32:54.535Z,7056.00
2019-05-05T08:33:54.669Z,6400.00
2019-05-05T08:34:58.149Z,5092.00
2019-05-05T08:35:54.234Z,6356.00
2019-05-05T08:36:53.885Z,6368.00
2019-05-05T08:37:54.226Z,5428.00
2019-05-05T08:38:54.649Z,5948.00
2019-05-05T08:39:54.100Z,6636.00
2019-05-05T08:40:54.337Z,6752.00
2019-05-05T08:41:53.893Z,6132.00
2019-05-05T08:42:54.041Z,4040.00
2019-05-05T08:43:54.314Z,4384.00
2019-05-05T08:44:53.913Z,5192.00
2019-05-05T08:45:55.369Z,5836.00
2019-05-05T08:46:53.907Z,5936.00
2019-05-05T08:47:54.236Z,5776.00
2019-05-05T08:48:53.816Z,5604.00
2019-05-05T08:49:53.800Z,5544.00
2019-05-05T08:50:54.105Z,5680.00
2019-05-05T08:51:54.680Z,5648.00
2019-05-05T08:52:53.777Z,5596.00
2019-05-05T08:53:54.593Z,5496.00
2019-05-05T08:54:54.142Z,5232.00
2019-05-05T08:55:54.675Z,4196.00
2019-05-05T08:56:54.967Z,3376.00
2019-05-05T08:57:54.022Z,3516.00
2019-05-05T08:58:54.483Z,3768.00
2019-05-05T08:59:54.531Z,5004.00
2019-05-05T09:00:53.728Z,4896.00
2019-05-05T09:01:54.195Z,4612.00
2019-05-05T09:02:54.322Z,3664.00
2019-05-05T09:03:53.627Z,3596.00
2019-05-05T09:04:53.795Z,3828.00
2019-05-05T09:05:54.248Z,3300.00
2019-05-05T09:06:54.300Z,2812.00
2019-05-05T09:07:54.765Z,2432.00
2019-05-05T09:08:54.796Z,2972.00
2019-05-05T09:09:54.638Z,2792.00
2019-05-05T09:10:55.037Z,3504.00
2019-05-05T09:11:54.216Z,5260.00
2019-05-05T09:12:54.291Z,5756.00
2019-05-05T09:13:53.560Z,5732.00
2019-05-05T09:14:53.879Z,5408.00
2019-05-05T09:15:54.376Z,5148.00
2019-05-05T09:16:53.712Z,4848.00
2019-05-05T09:17:54.415Z,5668.00
2019-05-05T09:18:54.418Z,5972.00
2019-05-05T09:19:53.740Z,6876.00
2019-05-05T09:20:53.759Z,6448.00
2019-05-05T09:21:54.179Z,7428.00
2019-05-05T09:22:53.543Z,10052.00
2019-05-05T09:23:59.919Z,9700.00
2019-05-05T09:24:53.666Z,10684.00
2019-05-05T09:25:54.002Z,9740.00
2019-05-05T09:26:54.062Z,9800.00
2019-05-05T09:27:53.599Z,11372.00
2019-05-05T09:28:53.832Z,11648.00
2019-05-05T09:29:54.330Z,11576.00
2019-05-05T09:30:53.633Z,12704.00
2019-05-05T09:31:54.042Z,14080.00
2019-05-05T09:32:54.167Z,13344.00
2019-05-05T09:33:53.655Z,16576.00
2019-05-05T09:34:54.076Z,19936.00
2019-05-05T09:35:54.118Z,24992.00
2019-05-05T09:36:54.447Z,12332.00
2019-05-05T09:37:53.614Z,26208.00
2019-05-05T09:38:54.037Z,23968.00
2019-05-05T09:39:54.150Z,72640.00
2019-05-05T09:40:54.396Z,14752.00
2019-05-05T09:41:53.643Z,7548.00
2019-05-05T09:42:53.545Z,3236.00
2019-05-05T09:43:53.904Z,1808.00
2019-05-05T09:44:54.191Z,1336.00
2019-05-05T09:45:54.018Z,1192.00
2019-05-05T09:46:53.830Z,1144.00
2019-05-05T09:47:53.861Z,1356.00
2019-05-05T09:48:54.152Z,1520.00
2019-05-05T09:49:54.800Z,1704.00
2019-05-05T09:50:54.092Z,1992.00
2019-05-05T09:51:54.500Z,2284.00
2019-05-05T09:52:53.643Z,2488.00
2019-05-05T09:53:54.156Z,2640.00
2019-05-05T09:54:54.273Z,2844.00
2019-05-05T09:55:54.599Z,3084.00
2019-05-05T09:56:53.749Z,3268.00
2019-05-05T09:57:53.993Z,3460.00
2019-05-05T09:58:54.362Z,3652.00
2019-05-05T09:59:54.177Z,3908.00
2019-05-05T10:00:54.561Z,3532.00
2019-05-05T10:01:53.786Z,3504.00
2019-05-05T10:02:54.349Z,3248.00
2019-05-05T10:03:53.924Z,2916.00
2019-05-05T10:04:54.485Z,2740.00
2019-05-05T10:05:54.076Z,2668.00
2019-05-05T10:06:52.223Z,2672.00
2019-05-05T10:07:54.375Z,2656.00
2019-05-05T10:08:53.837Z,2716.00
2019-05-05T10:09:54.123Z,2816.00
2019-05-05T10:10:52.179Z,2848.00
2019-05-05T10:11:53.900Z,2972.00
2019-05-05T10:12:53.032Z,3104.00
2019-05-05T10:13:52.102Z,3264.00
2019-05-05T10:14:54.024Z,3364.00
2019-05-05T10:15:52.082Z,3460.00
2019-05-05T10:16:53.906Z,3816.00
2019-05-05T10:17:54.074Z,4388.00
2019-05-05T10:18:54.131Z,5576.00
2019-05-05T10:19:52.012Z,6444.00
2019-05-05T10:20:53.990Z,6916.00
2019-05-05T10:21:51.973Z,6904.00
2019-05-05T10:22:54.152Z,12560.00
2019-05-05T10:23:53.925Z,7608.00
2019-05-05T10:24:55.155Z,7936.00
2019-05-05T10:25:53.850Z,8164.00
2019-05-05T10:26:51.887Z,8328.00
2019-05-05T10:27:53.825Z,11996.00
2019-05-05T10:28:53.611Z,10200.00
2019-05-05T10:29:51.837Z,12636.00
2019-05-05T10:30:53.750Z,16864.00
2019-05-05T10:31:53.854Z,15232.00
2019-05-05T10:32:51.929Z,10932.00
2019-05-05T10:33:53.829Z,8740.00
2019-05-05T10:34:51.765Z,10664.00
2019-05-05T10:35:51.744Z,10624.00
2019-05-05T10:36:53.500Z,11204.00
2019-05-05T10:37:51.710Z,14784.00
2019-05-05T10:38:53.733Z,13664.00
2019-05-05T10:39:51.674Z,12180.00
2019-05-05T10:40:53.610Z,7664.00
2019-05-05T10:41:53.482Z,4648.00
2019-05-05T10:42:53.701Z,3176.00
2019-05-05T10:43:51.765Z,3080.00
2019-05-05T10:44:53.736Z,3720.00
2019-05-05T10:45:51.583Z,5036.00
2019-05-05T10:46:53.823Z,12232.00
2019-05-05T10:47:51.582Z,9228.00
2019-05-05T10:48:51.542Z,7252.00
2019-05-05T10:49:51.555Z,7668.00
2019-05-05T10:50:53.593Z,4896.00
2019-05-05T10:51:51.488Z,4836.00
2019-05-05T10:52:53.570Z,9688.00
2019-05-05T10:53:51.484Z,13120.00
2019-05-05T10:54:51.441Z,11272.00
2019-05-05T10:55:51.432Z,16704.00
2019-05-05T10:56:51.409Z,10068.00
2019-05-05T10:57:51.395Z,9404.00
2019-05-05T10:58:51.384Z,12928.00
2019-05-05T10:59:51.405Z,13144.00
2019-05-05T11:00:51.353Z,10044.00
2019-05-05T11:01:51.327Z,9024.00
2019-05-05T11:02:51.324Z,6304.00
2019-05-05T11:03:51.304Z,4456.00
2019-05-05T11:04:51.281Z,3184.00
2019-05-05T11:05:51.286Z,3440.00
2019-05-05T11:06:51.264Z,3516.00
2019-05-05T11:07:51.238Z,3052.00
2019-05-05T11:08:51.222Z,2628.00
2019-05-05T11:09:51.207Z,2440.00
2019-05-05T11:10:51.191Z,2208.00
2019-05-05T11:11:51.176Z,2080.00
2019-05-05T11:12:51.160Z,1780.00
2019-05-05T11:13:51.143Z,1604.00
2019-05-05T11:14:51.138Z,1512.00
2019-05-05T11:15:51.119Z,1756.00
2019-05-05T11:16:51.096Z,1924.00
2019-05-05T11:17:51.091Z,1744.00
2019-05-05T11:18:51.077Z,1984.00
2019-05-05T11:19:51.050Z,2080.00
2019-05-05T11:20:51.166Z,2296.00
2019-05-05T11:21:51.628Z,2520.00
2019-05-05T11:22:51.002Z,2800.00
2019-05-05T11:23:50.992Z,2904.00
2019-05-05T11:24:58.354Z,2792.00
2019-05-05T11:25:50.956Z,2828.00
2019-05-05T11:26:50.972Z,2900.00
2019-05-05T11:27:50.971Z,3244.00
2019-05-05T11:28:50.904Z,3456.00
2019-05-05T11:29:50.948Z,3504.00
2019-05-05T11:30:50.878Z,3460.00
2019-05-05T11:31:50.909Z,3368.00
2019-05-05T11:32:50.845Z,3360.00
2019-05-05T11:33:50.818Z,3140.00
2019-05-05T11:34:50.816Z,3116.00
2019-05-05T11:35:50.787Z,3376.00
2019-05-05T11:36:50.768Z,3588.00
2019-05-05T11:37:50.789Z,3876.00
2019-05-05T11:38:50.742Z,3644.00
2019-05-05T11:39:50.718Z,3208.00
2019-05-05T11:40:50.713Z,3028.00
2019-05-05T11:41:50.719Z,2888.00
2019-05-05T11:42:50.678Z,2840.00
2019-05-05T11:43:50.656Z,2912.00
2019-05-05T11:44:50.638Z,2892.00
2019-05-05T11:45:50.619Z,2848.00
2019-05-05T11:46:50.609Z,2816.00
2019-05-05T11:47:50.592Z,2848.00
2019-05-05T11:48:50.571Z,2988.00
2019-05-05T11:49:50.556Z,3124.00
2019-05-05T11:50:50.529Z,3268.00
2019-05-05T11:51:50.518Z,3524.00
2019-05-05T11:52:50.504Z,3624.00
2019-05-05T11:53:50.621Z,3724.00
2019-05-05T11:54:50.473Z,3952.00
2019-05-05T11:55:50.452Z,4244.00
2019-05-05T11:56:50.435Z,4620.00
2019-05-05T11:57:50.414Z,5668.00
2019-05-05T11:58:50.506Z,6500.00
2019-05-05T11:59:50.446Z,7116.00
2019-05-05T12:00:50.379Z,9312.00
2019-05-05T12:01:50.363Z,10748.00
2019-05-05T12:02:50.380Z,8820.00
2019-05-05T12:03:50.344Z,8248.00
2019-05-05T12:04:50.325Z,8324.00
2019-05-05T12:05:50.285Z,7988.00
2019-05-05T12:06:50.269Z,8248.00
2019-05-05T12:07:50.262Z,7512.00
2019-05-05T12:08:50.237Z,7084.00
2019-05-05T12:09:50.362Z,6984.00
2019-05-05T12:10:50.210Z,6516.00
2019-05-05T12:11:50.188Z,5944.00
2019-05-05T12:12:50.176Z,5444.00
2019-05-05T12:13:50.159Z,5156.00
2019-05-05T12:14:50.147Z,5064.00
2019-05-05T12:15:50.284Z,5068.00
2019-05-05T12:16:50.106Z,5124.00
2019-05-05T12:17:50.098Z,4652.00
2019-05-05T12:18:50.075Z,4392.00
2019-05-05T12:19:50.064Z,4252.00
2019-05-05T12:20:50.079Z,4172.00
2019-05-05T12:21:50.082Z,4220.00
2019-05-05T12:22:50.025Z,4220.00
2019-05-05T12:23:49.995Z,3964.00
2019-05-05T12:24:49.978Z,3684.00
2019-05-05T12:25:50.013Z,3624.00
2019-05-05T12:26:49.951Z,3644.00
2019-05-05T12:27:49.936Z,3652.00
2019-05-05T12:28:49.922Z,3688.00